Time;durP1;ratioP1;P1;durP2;ratioP2;P2;SDS_P1;SDS_P2;PMS_P1;PMS_P2;Temp;Humidity;BMP_temperature;BMP_pressure;BME280_temperature;BME280_humidity;BME280_pressure;Samples;Min_cycle;Max_cycle;Signal;HPM_P1;HPM_P2
2022/06/30 00:01:26;;;;;;;8.18;5.82;;;20.90;99.90;;;;;;5092645;28;20412;-77
2022/06/30 00:03:52;;;;;;;7.53;5.60;;;20.90;99.90;;;;;;5092313;28;20963;-77
2022/06/30 00:06:18;;;;;;;7.43;5.50;;;21.20;99.90;;;;;;5075670;28;20394;-77
2022/06/30 00:08:44;;;;;;;7.07;4.85;;;;;;;;;;5093483;28;20900;-77
2022/06/30 00:11:09;;;;;;;8.52;5.20;;;21.20;99.90;;;;;;5092049;28;20817;-77
2022/06/30 00:13:37;;;;;;;5.40;4.70;;;21.00;99.90;;;;;;5058732;28;20398;-77
2022/06/30 00:16:03;;;;;;;7.32;5.00;;;20.70;99.90;;;;;;5075322;28;20398;-77
2022/06/30 00:18:29;;;;;;;5.57;4.25;;;20.80;99.90;;;;;;5091932;28;20398;-77
2022/06/30 00:20:55;;;;;;;6.70;4.80;;;20.70;99.90;;;;;;5091940;28;20483;-77
2022/06/30 00:23:21;;;;;;;4.97;4.45;;;;;;;;;;5091949;28;20501;-77
2022/06/30 00:25:47;;;;;;;5.72;4.22;;;20.90;99.90;;;;;;5091744;28;20409;-77
2022/06/30 00:28:13;;;;;;;7.03;4.38;;;20.80;99.90;;;;;;5092015;28;20508;-77
2022/06/30 00:30:39;;;;;;;8.73;4.63;;;;;;;;;;5091474;28;20509;-77
2022/06/30 00:33:04;;;;;;;6.70;4.32;;;20.70;99.90;;;;;;5058572;28;20460;-77
2022/06/30 00:35:30;;;;;;;6.50;4.70;;;20.50;99.90;;;;;;5091619;28;20885;-77
2022/06/30 00:37:56;;;;;;;7.13;4.70;;;20.60;99.90;;;;;;5074667;28;20437;-78
2022/06/30 00:40:22;;;;;;;8.68;4.50;;;;;;;;;;5074899;28;20882;-77
2022/06/30 00:42:48;;;;;;;5.60;4.30;;;20.20;99.90;;;;;;5074635;28;20398;-77
2022/06/30 00:45:14;;;;;;;8.70;4.60;;;;;;;;;;5074504;28;20454;-77
2022/06/30 00:47:40;;;;;;;7.03;4.60;;;20.40;99.90;;;;;;5074555;28;20394;-77
2022/06/30 00:50:08;;;;;;;6.60;4.32;;;20.60;99.90;;;;;;5091365;28;20429;-77
2022/06/30 00:52:36;;;;;;;5.57;4.80;;;20.40;99.90;;;;;;5074562;28;20394;-78
2022/06/30 00:55:04;;;;;;;5.80;4.40;;;20.40;99.90;;;;;;5091262;28;20405;-77
2022/06/30 00:57:31;;;;;;;7.10;4.80;;;20.50;99.90;;;;;;5091363;28;20401;-77
2022/06/30 00:59:57;;;;;;;5.60;4.50;;;;;;;;;;5091150;28;20759;-77
2022/06/30 01:02:24;;;;;;;5.32;4.50;;;20.20;99.90;;;;;;5091154;28;20406;-77
2022/06/30 01:04:52;;;;;;;7.05;4.40;;;20.20;99.90;;;;;;5091129;28;20491;-77
2022/06/30 01:07:21;;;;;;;5.43;4.80;;;20.00;99.90;;;;;;5091049;28;20463;-77
2022/06/30 01:12:43;;;;;;;6.85;4.50;;;20.10;99.90;;;;;;5090886;28;20684;-77
2022/06/30 01:15:17;;;;;;;5.88;4.65;;;20.10;99.90;;;;;;5090860;28;20405;-77
2022/06/30 01:17:44;;;;;;;5.53;4.22;;;20.00;99.90;;;;;;5091062;28;20455;-77
2022/06/30 01:20:10;;;;;;;6.65;4.80;;;19.90;99.90;;;;;;5090946;28;20397;-77
2022/06/30 01:22:36;;;;;;;6.10;4.77;;;19.90;99.90;;;;;;5090860;28;20459;-77
2022/06/30 01:25:03;;;;;;;8.65;4.90;;;20.00;99.90;;;;;;5090780;28;20406;-77
2022/06/30 01:27:29;;;;;;;6.22;4.50;;;20.00;99.90;;;;;;5073856;28;20421;-77
2022/06/30 01:29:56;;;;;;;7.70;4.83;;;19.80;99.90;;;;;;5073872;28;20464;-77
2022/06/30 01:32:22;;;;;;;7.67;4.63;;;19.80;99.90;;;;;;5090855;28;20394;-77
2022/06/30 01:34:47;;;;;;;7.37;4.80;;;19.50;99.90;;;;;;5073748;28;20913;-77
2022/06/30 01:37:13;;;;;;;5.97;5.00;;;19.40;99.90;;;;;;5073836;28;20398;-77
2022/06/30 01:39:39;;;;;;;5.40;4.80;;;19.50;99.90;;;;;;5090830;28;20489;-77
2022/06/30 01:42:05;;;;;;;6.20;4.95;;;19.60;99.90;;;;;;5090540;28;20412;-77
2022/06/30 01:44:31;;;;;;;8.05;4.55;;;19.50;99.90;;;;;;5090560;28;20409;-77
2022/06/30 01:46:57;;;;;;;6.00;4.60;;;;;;;;;;5073475;28;20417;-77
2022/06/30 01:49:23;;;;;;;6.10;4.38;;;19.40;99.90;;;;;;5089907;28;20766;-77
2022/06/30 01:51:49;;;;;;;7.43;4.77;;;;;;;;;;5090378;28;20401;-78
2022/06/30 01:54:15;;;;;;;7.87;4.70;;;;;;;;;;5073576;28;20398;-77
2022/06/30 01:56:41;;;;;;;6.13;4.80;;;19.30;99.90;;;;;;5090678;28;20433;-77
2022/06/30 01:59:06;;;;;;;6.80;4.70;;;19.20;99.90;;;;;;5073514;28;20405;-77
2022/06/30 02:01:33;;;;;;;7.07;4.70;;;19.40;99.90;;;;;;5073772;28;20394;-77
2022/06/30 02:06:44;;;;;;;7.35;4.88;;;19.30;99.90;;;;;;5076193;28;20474;-77
2022/06/30 02:09:10;;;;;;;5.13;4.60;;;19.30;99.90;;;;;;5090088;28;20394;-77
2022/06/30 02:11:36;;;;;;;7.13;4.60;;;;;;;;;;5073739;28;20394;-77
2022/06/30 02:14:03;;;;;;;5.67;4.80;;;;;;;;;;5090074;28;20885;-77
2022/06/30 02:16:28;;;;;;;7.25;4.82;;;19.10;99.90;;;;;;5090626;28;20495;-77
2022/06/30 02:18:54;;;;;;;6.82;4.75;;;19.00;99.90;;;;;;5073339;28;20898;-77
2022/06/30 02:21:20;;;;;;;6.70;4.40;;;19.20;99.90;;;;;;5090090;28;20445;-77
2022/06/30 02:23:46;;;;;;;5.73;4.50;;;19.00;99.90;;;;;;5090030;28;20447;-77
2022/06/30 02:26:12;;;;;;;6.10;4.60;;;;;;;;;;5090069;28;20445;-77
2022/06/30 02:28:37;;;;;;;6.90;4.65;;;19.00;99.90;;;;;;5073216;28;20396;-77
2022/06/30 02:31:03;;;;;;;5.78;4.53;;;19.00;99.90;;;;;;5056246;28;20760;-77
2022/06/30 02:33:29;;;;;;;6.82;4.53;;;;;;;;;;5089946;28;20478;-77
2022/06/30 02:35:55;;;;;;;7.20;4.70;;;19.00;99.90;;;;;;5091230;28;20711;-77
2022/06/30 02:38:21;;;;;;;5.83;4.87;;;;;;;;;;5073075;28;20402;-77
2022/06/30 02:40:47;;;;;;;6.78;4.63;;;;;;;;;;5089887;28;20953;-77
2022/06/30 02:43:13;;;;;;;5.78;4.50;;;18.90;99.90;;;;;;5090072;28;20470;-77
2022/06/30 02:45:39;;;;;;;5.60;4.57;;;;;;;;;;5073203;28;20897;-77
2022/06/30 02:48:05;;;;;;;5.37;4.40;;;18.80;99.90;;;;;;5056520;28;20398;-76
2022/06/30 02:50:31;;;;;;;7.40;4.75;;;;;;;;;;5056380;28;20421;-77
2022/06/30 02:52:57;;;;;;;6.05;4.45;;;19.00;99.90;;;;;;5073073;28;20425;-77
2022/06/30 02:55:23;;;;;;;7.03;4.53;;;19.00;99.90;;;;;;5073256;28;20467;-77
2022/06/30 02:57:49;;;;;;;5.57;4.60;;;18.70;99.90;;;;;;5072979;28;20931;-77
2022/06/30 03:00:15;;;;;;;6.82;4.57;;;18.70;99.90;;;;;;5091993;28;20401;-77
2022/06/30 03:02:41;;;;;;;7.10;4.60;;;;;;;;;;5093706;28;20452;-77
2022/06/30 03:05:09;;;;;;;6.30;4.80;;;18.80;99.90;;;;;;5093399;28;20417;-77
2022/06/30 03:07:35;;;;;;;10.35;4.93;;;;;;;;;;5093336;28;20406;-77
2022/06/30 03:10:01;;;;;;;4.65;4.13;;;;;;;;;;5093275;28;20550;-77
2022/06/30 03:12:28;;;;;;;5.95;4.43;;;;;;;;;;5093228;28;20406;-77
2022/06/30 03:14:54;;;;;;;4.90;4.40;;;18.40;99.90;;;;;;5093542;28;20458;-77
2022/06/30 03:17:20;;;;;;;6.38;4.43;;;;;;;;;;5060105;28;20386;-77
2022/06/30 03:19:46;;;;;;;5.70;4.40;;;;;;;;;;5076516;28;20406;-77
2022/06/30 03:22:12;;;;;;;5.68;4.68;;;;;;;;;;5093128;28;20410;-77
2022/06/30 03:24:38;;;;;;;7.80;4.60;;;18.40;99.90;;;;;;5093033;28;20409;-77
2022/06/30 03:27:05;;;;;;;6.00;4.60;;;;;;;;;;5092867;28;20409;-77
2022/06/30 03:29:30;;;;;;;7.40;4.43;;;18.70;99.90;;;;;;5092865;28;20460;-77
2022/06/30 03:31:56;;;;;;;5.77;4.33;;;18.50;99.90;;;;;;5092913;28;20429;-77
2022/06/30 03:34:22;;;;;;;6.78;4.70;;;18.50;99.90;;;;;;5093083;28;20448;-77
2022/06/30 03:36:48;;;;;;;5.47;4.45;;;;;;;;;;5092671;28;20481;-77
2022/06/30 03:39:14;;;;;;;5.35;4.60;;;;;;;;;;5075950;28;20397;-77
2022/06/30 03:41:39;;;;;;;6.80;4.70;;;18.50;99.90;;;;;;5092570;28;20463;-77
2022/06/30 03:44:05;;;;;;;6.18;4.63;;;18.30;99.90;;;;;;5059294;28;20402;-77
2022/06/30 03:46:31;;;;;;;6.23;4.40;;;;;;;;;;5075758;28;20394;-77
2022/06/30 03:48:57;;;;;;;5.80;4.80;;;;;;;;;;5075737;28;20481;-77
2022/06/30 03:51:23;;;;;;;6.75;4.80;;;18.50;99.90;;;;;;5092532;28;20983;-78
2022/06/30 03:53:48;;;;;;;7.50;4.83;;;18.00;99.90;;;;;;5075851;28;20410;-78
2022/06/30 03:56:14;;;;;;;8.20;4.63;;;18.40;99.90;;;;;;5075473;28;20420;-78
2022/06/30 03:58:40;;;;;;;5.72;4.60;;;18.30;99.90;;;;;;5092442;28;20410;-77
2022/06/30 04:01:06;;;;;;;7.72;4.65;;;18.20;99.90;;;;;;5075667;28;20463;-78
2022/06/30 04:03:32;;;;;;;5.95;4.72;;;;;;;;;;5092404;28;20398;-78
2022/06/30 04:05:58;;;;;;;9.02;4.78;;;;;;;;;;5075417;28;20398;-78
2022/06/30 04:08:24;;;;;;;7.32;4.72;;;18.40;99.90;;;;;;5075307;28;20531;-77
2022/06/30 04:10:50;;;;;;;7.88;4.80;;;;;;;;;;5091333;28;20520;-77
2022/06/30 04:13:16;;;;;;;6.03;4.60;;;;;;;;;;5091997;28;20398;-77
2022/06/30 04:15:42;;;;;;;7.57;4.65;;;;;;;;;;5092269;28;20394;-77
2022/06/30 04:18:08;;;;;;;6.22;4.88;;;;;;;;;;5092041;28;20447;-77
2022/06/30 04:20:34;;;;;;;9.40;4.80;;;18.40;99.90;;;;;;5091733;28;20929;-77
2022/06/30 04:23:00;;;;;;;7.80;5.00;;;;;;;;;;5074972;28;20402;-77
2022/06/30 04:25:26;;;;;;;5.72;4.60;;;;;;;;;;5075192;28;20413;-77
2022/06/30 04:27:56;;;;;;;7.20;4.97;;;18.30;99.90;;;;;;5074972;28;20416;-77
2022/06/30 04:33:06;;;;;;;7.00;5.03;;;;;;;;;;5091535;28;20485;-77
2022/06/30 04:35:33;;;;;;;6.13;5.10;;;18.40;99.90;;;;;;5091622;28;20923;-77
2022/06/30 04:37:59;;;;;;;7.03;5.20;;;;;;;;;;5074733;28;20398;-77
2022/06/30 04:43:10;;;;;;;6.50;5.00;;;;;;;;;;5091346;28;20406;-77
2022/06/30 04:45:36;;;;;;;8.15;5.15;;;18.40;99.90;;;;;;5091475;28;20402;-77
2022/06/30 04:48:02;;;;;;;6.78;4.80;;;18.50;99.90;;;;;;5091402;28;20421;-77
2022/06/30 04:50:28;;;;;;;6.53;5.00;;;18.50;99.90;;;;;;5091303;28;20414;-77
2022/06/30 04:52:54;;;;;;;5.53;4.90;;;18.70;99.90;;;;;;5091292;28;20510;-77
2022/06/30 04:55:20;;;;;;;5.40;4.80;;;;;;;;;;5091187;28;20440;-77
2022/06/30 04:57:47;;;;;;;7.83;4.80;;;;;;;;;;5091536;28;20489;-77
2022/06/30 05:00:13;;;;;;;7.70;4.82;;;18.50;99.90;;;;;;5091125;28;20405;-77
2022/06/30 05:02:38;;;;;;;6.63;4.53;;;18.90;99.90;;;;;;5074480;28;20750;-77
2022/06/30 05:05:04;;;;;;;7.90;4.60;;;18.80;99.90;;;;;;5074431;28;20406;-77
2022/06/30 05:07:30;;;;;;;6.70;4.68;;;19.00;99.90;;;;;;5074070;28;20402;-77
2022/06/30 05:09:57;;;;;;;5.63;4.88;;;;;;;;;;5091055;28;20449;-77
2022/06/30 05:12:22;;;;;;;6.88;5.13;;;18.80;99.90;;;;;;5090952;28;20404;-77
2022/06/30 05:14:48;;;;;;;7.10;4.47;;;;;;;;;;5057390;28;20398;-78
2022/06/30 05:17:14;;;;;;;7.00;5.03;;;;;;;;;;5073924;28;20402;-77
2022/06/30 05:19:41;;;;;;;7.10;4.90;;;;;;;;;;5074096;28;20401;-77
2022/06/30 05:22:07;;;;;;;6.13;4.55;;;;;;;;;;5073676;28;20894;-77
2022/06/30 05:27:18;;;;;;;7.85;5.25;;;;;;;;;;5090337;28;20452;-77
2022/06/30 05:29:44;;;;;;;7.88;4.93;;;;;;;;;;5057253;28;20448;-77
2022/06/30 05:32:10;;;;;;;7.20;5.15;;;;;;;;;;5090429;28;20906;-77
2022/06/30 05:34:36;;;;;;;8.05;5.10;;;19.60;99.90;;;;;;5090804;28;20401;-77
2022/06/30 05:37:03;;;;;;;7.30;4.68;;;19.70;99.90;;;;;;5056869;28;20886;-77
2022/06/30 05:39:29;;;;;;;7.50;5.18;;;19.60;99.90;;;;;;5090317;28;20406;-78
2022/06/30 05:41:55;;;;;;;8.35;5.40;;;20.10;99.90;;;;;;5073414;28;20398;-78
2022/06/30 05:44:20;;;;;;;7.32;5.00;;;19.70;99.90;;;;;;5073371;28;20398;-77
2022/06/30 05:46:46;;;;;;;5.60;5.00;;;;;;;;;;5056679;28;20405;-77
2022/06/30 05:49:12;;;;;;;6.32;5.05;;;20.30;99.90;;;;;;5090344;28;20458;-77
2022/06/30 05:51:38;;;;;;;6.30;5.10;;;;;;;;;;5073442;28;20398;-77
2022/06/30 05:54:04;;;;;;;6.47;5.13;;;20.00;99.90;;;;;;5073363;28;20402;-77
2022/06/30 05:56:30;;;;;;;7.40;5.32;;;;;;;;;;5073530;28;20406;-77
2022/06/30 05:58:56;;;;;;;6.90;5.07;;;20.30;99.90;;;;;;5073364;28;20425;-77
2022/06/30 06:01:22;;;;;;;8.80;5.15;;;;;;;;;;5073755;28;20433;-77
2022/06/30 06:03:48;;;;;;;7.63;5.00;;;;;;;;;;5090442;28;20853;-78
2022/06/30 06:06:14;;;;;;;7.88;5.55;;;;;;;;;;5073550;28;20429;-77
2022/06/30 06:08:40;;;;;;;7.82;5.30;;;20.40;99.90;;;;;;5073250;28;20479;-78
2022/06/30 06:11:07;;;;;;;8.95;5.20;;;;;;;;;;5073370;28;20421;-77
2022/06/30 06:13:32;;;;;;;7.37;5.30;;;21.10;99.90;;;;;;5073332;28;20405;-77
2022/06/30 06:15:58;;;;;;;6.60;4.90;;;20.90;99.90;;;;;;5056637;28;20408;-78
2022/06/30 06:18:24;;;;;;;7.15;5.22;;;21.00;99.90;;;;;;5073740;28;20394;-77
2022/06/30 06:20:49;;;;;;;6.47;5.18;;;21.00;99.90;;;;;;5090054;28;20398;-77
2022/06/30 06:23:15;;;;;;;8.40;5.40;;;21.30;99.90;;;;;;5090085;28;20402;-77
2022/06/30 06:25:41;;;;;;;8.87;5.17;;;21.30;99.90;;;;;;5090114;28;20474;-77
2022/06/30 06:30:52;;;;;;;7.30;5.65;;;21.10;99.90;;;;;;5065709;28;20457;-77
2022/06/30 06:33:18;;;;;;;8.03;5.80;;;21.20;99.90;;;;;;5073433;28;20437;-76
2022/06/30 06:35:43;;;;;;;8.32;5.90;;;21.20;99.90;;;;;;5076318;28;21006;-77
2022/06/30 06:38:09;;;;;;;10.38;5.50;;;21.30;99.90;;;;;;5077142;28;20432;-76
2022/06/30 06:40:35;;;;;;;7.43;5.93;;;21.30;99.90;;;;;;5076990;28;20398;-76
2022/06/30 06:43:00;;;;;;;7.57;5.60;;;21.30;99.90;;;;;;5060479;28;20477;-76
2022/06/30 06:45:26;;;;;;;7.63;5.85;;;21.40;99.90;;;;;;5093934;28;20800;-77
2022/06/30 06:47:52;;;;;;;7.30;6.07;;;21.30;99.90;;;;;;5093778;28;20404;-77
2022/06/30 06:50:18;;;;;;;7.45;5.95;;;22.20;99.90;;;;;;5093875;28;20943;-77
2022/06/30 06:52:43;;;;;;;9.02;6.38;;;21.80;99.90;;;;;;5076800;28;20757;-77
2022/06/30 06:55:09;;;;;;;7.87;6.20;;;21.70;99.90;;;;;;5076758;28;20473;-77
2022/06/30 06:57:40;;;;;;;7.90;6.28;;;21.70;99.90;;;;;;5076818;28;20559;-77
2022/06/30 07:00:07;;;;;;;7.47;6.05;;;21.80;99.90;;;;;;5093517;28;20405;-77
2022/06/30 07:02:33;;;;;;;7.30;6.03;;;21.80;99.90;;;;;;5093397;28;20413;-77
2022/06/30 07:04:59;;;;;;;11.63;6.77;;;22.10;99.90;;;;;;5076541;28;20401;-77
2022/06/30 07:07:25;;;;;;;7.65;6.50;;;22.20;99.90;;;;;;5076572;28;20398;-77
2022/06/30 07:09:51;;;;;;;9.45;6.25;;;22.40;99.90;;;;;;5060188;28;20436;-79
2022/06/30 07:12:17;;;;;;;8.43;6.40;;;22.40;99.90;;;;;;5076431;28;20904;-79
2022/06/30 07:14:43;;;;;;;7.68;6.18;;;23.00;99.90;;;;;;5076533;28;20398;-79
2022/06/30 07:17:08;;;;;;;7.57;6.20;;;22.60;99.90;;;;;;5076423;28;20481;-79
2022/06/30 07:19:34;;;;;;;9.02;5.78;;;22.50;99.90;;;;;;5092785;28;20799;-79
2022/06/30 07:22:00;;;;;;;10.77;6.37;;;22.70;99.90;;;;;;5093063;28;20440;-79
2022/06/30 07:24:25;;;;;;;8.07;6.55;;;23.00;99.90;;;;;;5076342;28;20492;-79
2022/06/30 07:26:51;;;;;;;8.13;6.50;;;22.60;99.90;;;;;;5076415;28;20897;-79
2022/06/30 07:29:17;;;;;;;8.57;6.73;;;22.60;99.90;;;;;;5095297;28;20928;-79
2022/06/30 07:31:43;;;;;;;8.43;6.63;;;22.80;99.90;;;;;;5096238;28;20439;-79
2022/06/30 07:34:08;;;;;;;9.10;6.55;;;23.00;99.90;;;;;;5062762;28;20401;-79
2022/06/30 07:36:36;;;;;;;8.95;6.85;;;23.00;99.90;;;;;;5079526;28;20393;-79
2022/06/30 07:39:03;;;;;;;9.50;6.57;;;23.30;99.90;;;;;;5062779;28;20392;-79
2022/06/30 07:41:29;;;;;;;8.77;7.10;;;23.60;99.90;;;;;;5079186;28;20897;-79
2022/06/30 07:43:55;;;;;;;11.20;7.00;;;23.20;99.90;;;;;;5096053;28;20396;-79
2022/06/30 07:46:20;;;;;;;14.25;6.60;;;23.40;99.90;;;;;;5061273;28;20411;-79
2022/06/30 07:48:47;;;;;;;9.60;7.03;;;23.60;99.90;;;;;;5079190;28;20500;-79
2022/06/30 07:51:15;;;;;;;11.37;7.00;;;23.50;99.90;;;;;;5095890;28;20404;-79
2022/06/30 07:53:41;;;;;;;9.43;7.10;;;23.90;99.90;;;;;;5095867;28;20404;-79
2022/06/30 07:56:07;;;;;;;8.43;6.77;;;23.40;99.90;;;;;;5062249;28;20396;-79
2022/06/30 07:58:33;;;;;;;8.15;6.90;;;23.70;99.90;;;;;;5079011;28;20472;-79
2022/06/30 08:01:00;;;;;;;8.75;7.05;;;23.90;99.90;;;;;;5078940;28;20434;-79
2022/06/30 08:03:26;;;;;;;9.07;7.60;;;24.00;99.90;;;;;;5079078;28;20736;-79
2022/06/30 08:05:52;;;;;;;10.02;7.50;;;23.60;99.90;;;;;;5062159;28;20434;-79
2022/06/30 08:08:17;;;;;;;9.23;7.43;;;23.60;99.90;;;;;;5095599;28;20403;-79
2022/06/30 08:10:43;;;;;;;9.27;7.00;;;23.60;99.90;;;;;;5078679;28;20424;-79
2022/06/30 08:13:09;;;;;;;8.80;7.57;;;23.90;99.90;;;;;;5078896;28;20405;-79
2022/06/30 08:15:35;;;;;;;9.00;7.40;;;24.10;99.90;;;;;;5078685;28;20418;-79
2022/06/30 08:18:06;;;;;;;9.90;6.68;;;24.10;99.90;;;;;;5095308;28;20914;-79
2022/06/30 08:20:32;;;;;;;8.50;7.23;;;24.60;99.90;;;;;;5078783;28;20396;-79
2022/06/30 08:22:58;;;;;;;9.18;7.40;;;24.70;99.90;;;;;;5061645;28;20411;-79
2022/06/30 08:25:25;;;;;;;10.13;7.10;;;24.60;99.90;;;;;;5078458;28;20433;-79
2022/06/30 08:27:51;;;;;;;10.15;7.32;;;24.70;99.90;;;;;;5078467;28;20541;-79
2022/06/30 08:30:17;;;;;;;10.60;7.38;;;25.10;99.90;;;;;;5062194;28;20424;-79
2022/06/30 08:32:43;;;;;;;9.50;7.53;;;25.10;99.90;;;;;;5078086;28;20444;-79
2022/06/30 08:35:09;;;;;;;9.03;8.13;;;24.70;99.90;;;;;;5061574;28;20415;-78
2022/06/30 08:37:34;;;;;;;8.63;7.65;;;24.80;99.90;;;;;;5095296;28;20400;-78
2022/06/30 08:42:46;;;;;;;9.32;8.05;;;25.00;99.90;;;;;;5080506;28;20799;-78
2022/06/30 08:45:19;;;;;;;8.93;8.02;;;25.00;99.90;;;;;;5095224;28;20396;-79
2022/06/30 08:47:46;;;;;;;8.85;7.40;;;25.40;99.90;;;;;;5062231;28;20392;-78
2022/06/30 08:50:14;;;;;;;8.93;8.02;;;25.80;99.90;;;;;;5061154;28;20499;-79
2022/06/30 08:52:53;;;;;;;9.40;8.25;;;26.20;99.90;;;;;;5078081;28;20392;-78
2022/06/30 08:55:23;;;;;;;10.40;8.80;;;26.20;99.90;;;;;;5094827;28;20388;-78
2022/06/30 08:57:51;;;;;;;8.68;7.75;;;26.00;99.90;;;;;;5094222;28;20404;-78
2022/06/30 09:00:18;;;;;;;9.48;7.45;;;26.60;99.90;;;;;;5094447;28;20400;-78
2022/06/30 09:02:45;;;;;;;8.87;7.53;;;26.90;99.90;;;;;;5077551;28;20949;-78
2022/06/30 09:05:11;;;;;;;11.05;8.13;;;27.30;99.90;;;;;;5094796;28;20730;-79
2022/06/30 09:07:37;;;;;;;10.73;8.35;;;27.20;99.90;;;;;;5077580;28;20453;-78
2022/06/30 09:10:05;;;;;;;10.83;9.37;;;27.50;99.90;;;;;;5061127;28;20427;-78
2022/06/30 09:12:31;;;;;;;11.45;9.68;;;27.20;99.90;;;;;;5077777;28;20887;-78
2022/06/30 09:14:57;;;;;;;10.65;9.15;;;27.30;99.90;;;;;;5077741;28;20422;-78
2022/06/30 09:17:24;;;;;;;11.10;10.00;;;27.50;99.90;;;;;;5094260;28;20880;-79
2022/06/30 09:19:59;;;;;;;10.40;9.30;;;27.90;99.90;;;;;;5060909;28;20404;-78
2022/06/30 09:22:27;;;;;;;10.43;9.15;;;27.90;99.90;;;;;;5077600;28;20396;-78
2022/06/30 09:25:10;;;;;;;13.15;8.90;;;28.20;99.90;;;;;;5094136;28;20403;-78
2022/06/30 09:27:44;;;;;;;11.48;8.85;;;28.60;99.90;;;;;;5094135;28;20473;-79
2022/06/30 09:30:13;;;;;;;12.23;10.32;;;28.50;99.90;;;;;;5093863;28;20482;-79
2022/06/30 09:32:56;;;;;;;13.82;11.25;;;28.30;99.90;;;;;;5093988;28;20456;-79
2022/06/30 09:35:28;;;;;;;13.75;9.45;;;27.80;99.90;;;;;;5094188;28;20401;-78
2022/06/30 09:38:03;;;;;;;11.23;8.82;;;28.50;99.90;;;;;;5094004;28;20392;-79
2022/06/30 09:40:36;;;;;;;10.40;9.38;;;28.80;99.90;;;;;;5093933;28;21010;-79
2022/06/30 09:43:04;;;;;;;11.65;9.07;;;29.40;99.90;;;;;;5093753;28;20396;-79
2022/06/30 09:45:41;;;;;;;10.93;9.45;;;29.20;99.90;;;;;;5094063;28;20400;-79
2022/06/30 09:48:11;;;;;;;14.48;10.85;;;29.00;99.90;;;;;;5093719;28;20410;-79
2022/06/30 09:50:37;;;;;;;12.63;9.70;;;28.10;99.90;;;;;;5076861;28;20419;-79
2022/06/30 09:53:05;;;;;;;13.40;9.90;;;28.10;99.90;;;;;;5093913;28;20392;-79
2022/06/30 09:55:40;;;;;;;10.60;8.85;;;28.50;99.90;;;;;;5093613;28;20404;-79
2022/06/30 09:58:06;;;;;;;11.98;9.93;;;28.90;99.90;;;;;;5093807;28;20397;-77
2022/06/30 10:00:46;;;;;;;15.32;10.75;;;28.90;99.90;;;;;;5060367;28;20400;-76
2022/06/30 10:03:11;;;;;;;12.80;9.67;;;28.40;99.90;;;;;;5093551;28;20415;-76
2022/06/30 10:05:43;;;;;;;12.93;9.60;;;28.40;99.90;;;;;;5093511;28;20408;-76
2022/06/30 10:08:10;;;;;;;10.57;8.57;;;28.90;99.90;;;;;;5077495;28;20407;-76
2022/06/30 10:10:36;;;;;;;9.98;8.77;;;29.10;99.90;;;;;;5062908;28;20473;-76
2022/06/30 10:13:04;;;;;;;12.95;10.23;;;29.30;99.90;;;;;;5097922;28;20765;-76
2022/06/30 10:15:34;;;;;;;13.20;9.23;;;29.50;99.90;;;;;;5080889;28;20392;-76
2022/06/30 10:18:01;;;;;;;14.40;9.18;;;29.50;99.90;;;;;;5097666;28;20782;-77
2022/06/30 10:20:28;;;;;;;9.35;7.15;;;29.50;99.90;;;;;;5081100;28;20400;-77
2022/06/30 10:22:54;;;;;;;7.78;6.63;;;29.50;99.90;;;;;;5081024;28;20403;-77
2022/06/30 10:25:20;;;;;;;7.45;6.13;;;29.40;99.90;;;;;;5097568;28;20457;-77
2022/06/30 10:27:46;;;;;;;9.63;7.70;;;29.30;99.90;;;;;;5097610;28;20397;-76
2022/06/30 10:30:19;;;;;;;9.02;7.88;;;29.40;99.90;;;;;;5097223;28;20412;-77
2022/06/30 10:33:07;;;;;;;11.83;9.20;;;29.50;99.90;;;;;;5080467;28;20396;-76
2022/06/30 10:35:32;;;;;;;10.82;9.73;;;29.50;99.90;;;;;;5080571;28;20403;-77
2022/06/30 10:38:05;;;;;;;11.47;9.23;;;29.30;99.90;;;;;;5097227;28;20751;-76
2022/06/30 10:40:49;;;;;;;12.27;8.73;;;28.90;99.90;;;;;;5097408;28;20483;-76
2022/06/30 10:43:16;;;;;;;9.82;7.60;;;28.80;99.90;;;;;;5080094;28;20404;-77
2022/06/30 10:45:57;;;;;;;9.87;6.87;;;29.00;99.90;;;;;;5063718;28;20400;-77
2022/06/30 10:48:24;;;;;;;8.18;5.70;;;29.30;99.90;;;;;;5096873;28;20400;-77
2022/06/30 10:50:51;;;;;;;9.45;5.70;;;29.30;99.90;;;;;;5079974;28;20423;-77
2022/06/30 10:53:37;;;;;;;7.93;7.13;;;29.60;99.90;;;;;;5080610;28;20407;-77
2022/06/30 10:56:03;;;;;;;12.10;8.83;;;30.10;99.90;;;;;;5096843;28;20396;-77
2022/06/30 10:58:28;;;;;;;11.20;9.07;;;30.00;99.90;;;;;;5079977;28;20476;-77
2022/06/30 11:01:05;;;;;;;9.50;8.50;;;29.70;99.90;;;;;;5080045;28;20493;-77
2022/06/30 11:03:34;;;;;;;10.67;8.33;;;30.10;99.90;;;;;;5080215;28;20406;-77
2022/06/30 11:06:06;;;;;;;13.50;8.03;;;29.90;99.90;;;;;;5079993;28;20884;-78
2022/06/30 11:08:47;;;;;;;10.68;8.70;;;29.80;99.90;;;;;;5079871;28;20794;-77
2022/06/30 11:11:25;;;;;;;10.65;7.05;;;29.30;99.90;;;;;;5079747;28;20421;-78
2022/06/30 11:14:03;;;;;;;10.38;6.90;;;29.40;99.90;;;;;;5096899;28;20412;-77
2022/06/30 11:16:31;;;;;;;10.10;8.73;;;29.30;99.90;;;;;;5096615;28;20400;-77
2022/06/30 11:18:57;;;;;;;12.65;9.82;;;29.50;99.90;;;;;;5096555;28;20399;-78
2022/06/30 11:21:23;;;;;;;12.77;9.85;;;29.40;99.90;;;;;;5079820;28;20476;-78
2022/06/30 11:23:50;;;;;;;9.70;7.80;;;29.40;99.90;;;;;;5079685;28;20842;-77
2022/06/30 11:29:10;;;;;;;10.05;8.45;;;28.90;99.90;;;;;;5096452;28;20943;-79
2022/06/30 11:31:39;;;;;;;12.55;9.88;;;28.90;99.90;;;;;;5080882;28;20451;-79
2022/06/30 11:34:18;;;;;;;10.30;8.37;;;29.30;99.90;;;;;;5096401;28;20892;-79
2022/06/30 11:36:45;;;;;;;9.63;6.63;;;29.50;99.90;;;;;;5096210;28;20914;-79
2022/06/30 11:39:18;;;;;;;12.00;7.43;;;29.90;99.90;;;;;;5096510;28;20404;-79
2022/06/30 11:41:59;;;;;;;10.50;7.80;;;29.60;99.90;;;;;;5079623;28;20412;-79
2022/06/30 11:44:34;;;;;;;11.47;6.70;;;30.10;99.90;;;;;;5079044;28;20406;-80
2022/06/30 11:47:01;;;;;;;8.27;5.72;;;29.90;99.90;;;;;;5096243;28;20400;-79
2022/06/30 11:49:53;;;;;;;12.13;5.43;;;30.20;99.90;;;;;;5096522;28;20896;-79
2022/06/30 11:52:20;;;;;;;8.18;5.05;;;30.10;99.90;;;;;;5096065;28;20487;-80
2022/06/30 11:54:57;;;;;;;6.70;4.90;;;29.70;99.90;;;;;;5079151;28;20393;-80
2022/06/30 11:57:24;;;;;;;8.80;5.20;;;29.80;99.90;;;;;;5095900;28;20408;-80
2022/06/30 12:00:00;;;;;;;9.07;4.00;;;29.90;99.90;;;;;;5079132;28;20407;-80
2022/06/30 12:02:27;;;;;;;5.88;4.00;;;30.10;99.90;;;;;;5079244;28;20397;-80
2022/06/30 12:04:54;;;;;;;7.18;4.20;;;29.70;99.90;;;;;;5079108;28;20834;-80
2022/06/30 12:07:21;;;;;;;7.10;4.00;;;30.30;99.90;;;;;;5095902;28;20395;-80
2022/06/30 12:09:48;;;;;;;8.27;4.00;;;30.20;99.90;;;;;;5095643;28;20420;-80
2022/06/30 12:12:17;;;;;;;6.43;4.20;;;30.60;99.90;;;;;;5095876;28;20396;-80
2022/06/30 12:14:45;;;;;;;6.68;3.78;;;30.50;99.90;;;;;;5078732;28;20399;-80
2022/06/30 12:17:15;;;;;;;7.65;4.15;;;30.50;99.90;;;;;;5079301;28;20403;-80
2022/06/30 12:19:41;;;;;;;6.20;4.40;;;30.80;99.90;;;;;;5062198;28;20400;-80
2022/06/30 12:22:08;;;;;;;8.20;4.80;;;30.30;99.90;;;;;;5096062;28;20426;-80
2022/06/30 12:24:43;;;;;;;8.52;5.03;;;30.20;99.90;;;;;;5078863;28;20396;-80
2022/06/30 12:27:25;;;;;;;11.73;9.10;;;30.00;99.90;;;;;;5078374;28;20408;-80
2022/06/30 12:29:59;;;;;;;12.20;9.63;;;30.10;99.90;;;;;;5095113;28;20923;-80
2022/06/30 12:32:26;;;;;;;13.23;10.23;;;29.70;99.90;;;;;;5094826;28;20392;-80
2022/06/30 12:34:55;;;;;;;15.50;11.55;;;29.70;99.90;;;;;;5061974;28;20396;-80
2022/06/30 12:37:31;;;;;;;13.07;10.20;;;29.70;99.90;;;;;;5095994;28;20906;-80
2022/06/30 12:40:03;;;;;;;11.33;8.73;;;29.50;99.90;;;;;;5078430;28;20464;-80
2022/06/30 12:42:44;;;;;;;12.55;9.98;;;29.70;99.90;;;;;;5063276;28;20407;-80
2022/06/30 12:45:44;;;;;;;14.63;9.75;;;29.20;99.90;;;;;;5095270;28;20461;-80
2022/06/30 12:48:11;;;;;;;12.48;8.98;;;29.20;99.90;;;;;;5079019;28;20889;-80
2022/06/30 12:50:39;;;;;;;14.88;10.68;;;29.00;99.90;;;;;;5062567;28;20415;-80
2022/06/30 12:53:25;;;;;;;11.45;9.55;;;29.10;99.90;;;;;;5095899;28;20492;-80
2022/06/30 12:56:08;;;;;;;15.55;10.82;;;29.00;99.90;;;;;;5078285;28;20802;-80
2022/06/30 12:58:59;;;;;;;15.18;9.93;;;29.10;99.90;;;;;;5079001;28;20952;-80
2022/06/30 13:01:27;;;;;;;12.52;9.02;;;29.50;99.90;;;;;;5096152;28;20400;-80
2022/06/30 13:04:04;;;;;;;10.18;7.40;;;29.20;99.90;;;;;;5078391;28;20883;-80
2022/06/30 13:06:36;;;;;;;12.75;8.80;;;29.40;99.90;;;;;;5095096;28;20495;-80
2022/06/30 13:09:06;;;;;;;10.23;7.00;;;29.00;99.90;;;;;;5095316;28;20483;-80
2022/06/30 13:11:33;;;;;;;8.90;6.53;;;28.80;99.90;;;;;;5095402;28;20469;-81
2022/06/30 13:14:00;;;;;;;10.77;6.50;;;28.60;99.90;;;;;;5098386;28;20403;-80
2022/06/30 13:16:30;;;;;;;8.50;5.90;;;29.00;99.90;;;;;;5062391;28;20396;-80
2022/06/30 13:18:58;;;;;;;11.20;6.43;;;28.40;99.90;;;;;;5078728;28;20389;-80
2022/06/30 13:21:24;;;;;;;9.18;6.47;;;30.90;99.90;;;;;;5095113;28;20453;-80
2022/06/30 13:23:50;;;;;;;10.57;5.70;;;28.20;99.90;;;;;;5095182;28;20400;-80
2022/06/30 13:26:15;;;;;;;8.73;5.68;;;28.40;99.90;;;;;;5094604;28;20403;-80
2022/06/30 13:28:41;;;;;;;11.45;6.65;;;28.30;99.90;;;;;;5078850;28;20445;-80